createdAt,value
2022-11-11T00:00:06.907Z,0.00
2022-11-11T00:05:38.592Z,0.00
2022-11-11T00:11:10.577Z,0.00
2022-11-11T00:16:42.085Z,0.00
2022-11-11T00:22:14.130Z,0.00
2022-11-11T00:27:46.229Z,0.00
2022-11-11T00:33:17.896Z,1.00
2022-11-11T00:38:49.766Z,0.00
2022-11-11T00:44:21.495Z,0.00
2022-11-11T00:49:53.140Z,0.00
2022-11-11T00:55:24.935Z,0.00
2022-11-11T01:00:56.989Z,0.00
2022-11-11T01:06:28.356Z,0.00
2022-11-11T01:11:59.979Z,0.00
2022-11-11T01:17:31.802Z,0.00
2022-11-11T01:23:03.625Z,0.00
2022-11-11T01:28:35.342Z,1.00
2022-11-11T01:34:07.221Z,0.00
2022-11-11T01:39:39.449Z,0.00
2022-11-11T01:45:11.000Z,0.00
2022-11-11T01:50:42.711Z,0.00
2022-11-11T01:56:14.413Z,0.00
2022-11-11T02:01:46.381Z,0.00
2022-11-11T02:07:18.001Z,0.00
2022-11-11T02:15:03.207Z,1.00
2022-11-11T02:20:35.026Z,0.00
2022-11-11T02:26:06.556Z,0.00
2022-11-11T02:37:08.167Z,0.00
2022-11-11T02:42:39.976Z,0.00
2022-11-11T02:48:11.830Z,1.00
2022-11-11T02:53:43.701Z,0.00
2022-11-11T02:59:15.679Z,0.00
2022-11-11T03:04:47.363Z,0.00
2022-11-11T03:10:19.238Z,0.00
2022-11-11T03:15:51.052Z,1.00
2022-11-11T03:26:54.730Z,1.00
2022-11-11T03:32:26.452Z,0.00
2022-11-11T03:37:58.325Z,0.00
2022-11-11T03:43:30.338Z,0.00
2022-11-11T03:49:02.111Z,0.00
2022-11-11T03:54:33.812Z,0.00
2022-11-11T04:00:12.321Z,0.00
2022-11-11T04:05:37.417Z,1.00
2022-11-11T04:11:09.240Z,0.00
2022-11-11T04:22:10.549Z,0.00
2022-11-11T04:27:42.199Z,0.00
2022-11-11T04:33:13.883Z,0.00
2022-11-11T04:38:45.833Z,0.00
2022-11-11T04:44:17.645Z,0.00
2022-11-11T04:49:49.204Z,0.00
2022-11-11T04:55:22.268Z,1.00
2022-11-11T05:00:52.852Z,0.00
2022-11-11T05:06:24.559Z,1.00
2022-11-11T05:11:56.510Z,0.00
2022-11-11T05:17:28.075Z,1.00
2022-11-11T05:23:00.098Z,0.00
2022-11-11T05:28:31.814Z,0.00
2022-11-11T05:34:03.558Z,2.00
2022-11-11T05:39:35.433Z,5.00
2022-11-11T05:45:07.041Z,12.00
2022-11-11T05:50:38.929Z,25.00
2022-11-11T05:56:10.402Z,95.00
2022-11-11T06:01:42.187Z,238.00
2022-11-11T06:07:14.338Z,399.00
2022-11-11T06:12:46.583Z,272.00
2022-11-11T06:18:19.176Z,504.00
2022-11-11T06:23:51.078Z,986.00
2022-11-11T06:29:23.501Z,1978.00
2022-11-11T06:34:55.548Z,5099.00
2022-11-11T06:40:28.063Z,11125.00
2022-11-11T06:46:00.058Z,7870.00
2022-11-11T06:51:32.082Z,5395.00
2022-11-11T06:57:08.377Z,5762.00
2022-11-11T07:02:36.724Z,6315.00
2022-11-11T07:08:08.934Z,6795.00
2022-11-11T07:13:41.088Z,7201.00
2022-11-11T07:19:13.380Z,7564.00
2022-11-11T07:24:45.629Z,8035.00
2022-11-11T07:30:17.851Z,9599.00
2022-11-11T07:35:49.841Z,9709.00
2022-11-11T07:41:22.552Z,10411.00
2022-11-11T07:46:54.991Z,12045.00
2022-11-11T07:52:27.106Z,14815.00
2022-11-11T07:57:59.506Z,14276.00
2022-11-11T08:03:31.458Z,10690.00
2022-11-11T08:09:03.347Z,9826.00
2022-11-11T08:14:41.735Z,9299.00
2022-11-11T08:20:14.004Z,9246.00
2022-11-11T08:25:46.262Z,9590.00
2022-11-11T08:31:18.454Z,10533.00
2022-11-11T08:36:50.653Z,11230.00
2022-11-11T08:47:52.895Z,10293.00
2022-11-11T08:53:25.339Z,10533.00
2022-11-11T08:58:57.223Z,11717.00
2022-11-11T09:04:44.325Z,12286.00
2022-11-11T09:10:01.449Z,13186.00
2022-11-11T09:15:33.277Z,13556.00
2022-11-11T09:21:05.257Z,13426.00
2022-11-11T09:26:37.521Z,15110.00
2022-11-11T09:32:15.180Z,14773.00
2022-11-11T09:37:47.550Z,14228.00
2022-11-11T09:43:25.746Z,13673.00
2022-11-11T09:48:57.467Z,12367.00
2022-11-11T09:54:30.001Z,12420.00
2022-11-11T10:00:02.010Z,12558.00
2022-11-11T10:05:40.005Z,12482.00
2022-11-11T10:11:18.204Z,12910.00
2022-11-11T10:16:56.204Z,13895.00
2022-11-11T10:22:34.285Z,14612.00
2022-11-11T10:28:06.524Z,14516.00
2022-11-11T10:33:38.791Z,14096.00
2022-11-11T10:39:11.974Z,13593.00
2022-11-11T10:44:44.101Z,11811.00
2022-11-11T10:50:22.239Z,11446.00
2022-11-11T10:55:53.885Z,11554.00
2022-11-11T11:01:31.676Z,12642.00
2022-11-11T11:07:09.576Z,13552.00
2022-11-11T11:12:47.061Z,13479.00
2022-11-11T11:18:25.208Z,12341.00
2022-11-11T11:24:03.522Z,12487.00
2022-11-11T11:29:41.255Z,12877.00
2022-11-11T11:35:13.516Z,12105.00
2022-11-11T11:40:51.150Z,12046.00
2022-11-11T11:46:28.870Z,11433.00
2022-11-11T11:52:06.920Z,10486.00
2022-11-11T11:57:44.767Z,10233.00
2022-11-11T12:03:22.409Z,9640.00
2022-11-11T12:14:38.308Z,8591.00
2022-11-11T12:20:18.277Z,8349.00
2022-11-11T12:25:56.513Z,8807.00
2022-11-11T12:31:34.863Z,8329.00
2022-11-11T12:37:12.947Z,7551.00
2022-11-11T12:42:46.496Z,6995.00
2022-11-11T12:48:18.302Z,6904.00
2022-11-11T12:53:56.269Z,6222.00
2022-11-11T12:59:33.971Z,5583.00
2022-11-11T13:05:05.967Z,4648.00
2022-11-11T13:10:44.401Z,4068.00
2022-11-11T13:16:22.366Z,3831.00
2022-11-11T13:27:29.832Z,4667.00
2022-11-11T13:33:07.966Z,5242.00
2022-11-11T13:38:45.890Z,6500.00
2022-11-11T13:44:23.665Z,6353.00
2022-11-11T13:50:01.071Z,5586.00
2022-11-11T13:55:39.439Z,4779.00
2022-11-11T14:01:17.462Z,4316.00
2022-11-11T14:06:55.611Z,4332.00
2022-11-11T14:12:27.463Z,4333.00
2022-11-11T14:17:59.610Z,4209.00
2022-11-11T14:23:37.953Z,3936.00
2022-11-11T14:29:09.997Z,3618.00
2022-11-11T14:34:42.284Z,3408.00
2022-11-11T14:40:14.739Z,2932.00
2022-11-11T14:45:46.872Z,2811.00
2022-11-11T14:51:19.000Z,2584.00
2022-11-11T14:56:52.944Z,2355.00
2022-11-11T15:02:25.079Z,2108.00
2022-11-11T15:07:56.760Z,1700.00
2022-11-11T15:13:28.600Z,1197.00
2022-11-11T15:19:00.681Z,811.00
2022-11-11T15:24:32.696Z,561.00
2022-11-11T15:30:04.857Z,402.00
2022-11-11T15:32:17.749Z,328.00
2022-11-11T15:37:49.536Z,198.00
2022-11-11T15:43:21.963Z,130.00
2022-11-11T15:48:53.916Z,80.00
2022-11-11T15:54:25.791Z,42.00
2022-11-11T15:59:57.315Z,17.00
2022-11-11T16:02:27.798Z,11.00
2022-11-11T16:07:57.705Z,6.00
2022-11-11T16:13:26.695Z,2.00
2022-11-11T16:18:58.604Z,2.00
2022-11-11T16:24:30.442Z,1.00
2022-11-11T16:30:02.307Z,0.00
2022-11-11T16:35:34.126Z,0.00
2022-11-11T16:41:06.438Z,0.00
2022-11-11T16:46:38.578Z,3.00
2022-11-11T16:52:10.866Z,2.00
2022-11-11T16:57:42.696Z,3.00
2022-11-11T17:03:14.555Z,2.00
2022-11-11T17:08:47.005Z,2.00
2022-11-11T17:14:19.009Z,3.00
2022-11-11T17:19:50.971Z,3.00
2022-11-11T17:25:23.123Z,2.00
2022-11-11T17:31:01.780Z,3.00
2022-11-11T17:36:33.750Z,0.00
2022-11-11T17:42:05.962Z,0.00
2022-11-11T17:47:43.375Z,1.00
2022-11-11T17:53:15.385Z,0.00
2022-11-11T17:58:42.590Z,0.00
2022-11-11T18:04:14.423Z,0.00
2022-11-11T18:09:46.387Z,0.00
2022-11-11T18:15:18.780Z,1.00
2022-11-11T18:20:50.641Z,0.00
2022-11-11T18:26:22.817Z,1.00
2022-11-11T18:31:56.460Z,1.00
2022-11-11T18:37:27.597Z,0.00
2022-11-11T18:42:59.434Z,1.00
2022-11-11T18:48:31.390Z,0.00
2022-11-11T18:54:03.568Z,0.00
2022-11-11T18:59:35.188Z,0.00
2022-11-11T19:05:07.038Z,0.00
2022-11-11T19:10:38.965Z,1.00
2022-11-11T19:16:10.518Z,0.00
2022-11-11T19:21:42.678Z,0.00
2022-11-11T19:27:14.413Z,0.00
2022-11-11T19:32:45.946Z,1.00
2022-11-11T19:38:17.608Z,1.00
2022-11-11T19:43:49.458Z,0.00
2022-11-11T19:49:21.481Z,1.00
2022-11-11T19:54:53.230Z,1.00
2022-11-11T20:00:25.088Z,0.00
2022-11-11T20:05:56.651Z,0.00
2022-11-11T20:11:28.592Z,0.00
2022-11-11T20:17:00.172Z,0.00
2022-11-11T20:22:31.970Z,0.00
2022-11-11T20:28:03.632Z,1.00
2022-11-11T20:33:35.536Z,1.00
2022-11-11T20:39:07.346Z,0.00
2022-11-11T20:44:39.028Z,0.00
2022-11-11T20:50:11.029Z,0.00
2022-11-11T20:55:43.068Z,0.00
2022-11-11T21:01:15.925Z,0.00
2022-11-11T21:06:47.603Z,1.00
2022-11-11T21:12:19.529Z,0.00
2022-11-11T21:17:51.421Z,0.00
2022-11-11T21:23:23.965Z,0.00
2022-11-11T21:28:55.479Z,0.00
2022-11-11T21:34:27.134Z,1.00
2022-11-11T21:39:59.627Z,0.00
2022-11-11T21:45:31.991Z,1.00
2022-11-11T21:51:04.153Z,0.00
2022-11-11T21:56:36.178Z,1.00
2022-11-11T22:02:07.875Z,0.00
2022-11-11T22:07:39.975Z,1.00
2022-11-11T22:13:12.196Z,1.00
2022-11-11T22:18:44.879Z,0.00
2022-11-11T22:21:08.904Z,0.00
2022-11-11T22:26:40.822Z,0.00
2022-11-11T22:32:12.460Z,0.00
2022-11-11T22:37:44.399Z,0.00
2022-11-11T22:43:19.765Z,0.00
2022-11-11T22:45:39.754Z,0.00
2022-11-11T22:51:11.062Z,0.00
2022-11-11T22:56:42.845Z,0.00
2022-11-11T23:02:14.688Z,0.00
2022-11-11T23:07:46.580Z,1.00
2022-11-11T23:13:18.491Z,0.00
2022-11-11T23:18:49.976Z,1.00
2022-11-11T23:24:22.185Z,0.00
2022-11-11T23:29:53.539Z,1.00
2022-11-11T23:35:25.288Z,0.00
2022-11-11T23:40:56.706Z,1.00
2022-11-11T23:46:28.423Z,1.00
2022-11-11T23:52:00.377Z,0.00
2022-11-11T23:57:32.015Z,0.00
